| time (UTC) | temp F | wind direction | speed knots | gust knots | rain 1hr in | rain 24hr in | rain mn in | humidity % | barometer mb |
| 20260510202126 | 78 | 255 | 1.7 | 1.7 | 0.00 | 0.00 | 0.00 | 48 | 1013.3 |
| 20260510201624 | 78 | 214 | 0.9 | 1.7 | 0.00 | 0.00 | 0.00 | 47 | 1013.4 |
| 20260510201120 | 77 | 190 | 0.0 | 0.0 | 0.00 | 0.00 | 0.00 | 49 | 1013.3 |
| 20260510200616 | 77 | 188 | 0.0 | 0.9 | 0.00 | 0.00 | 0.00 | 48 | 1013.3 |
| 20260510200115 | 78 | 258 | 0.9 | 0.9 | 0.00 | 0.00 | 0.00 | 47 | 1013.4 |
| 20260510195612 | 80 | 124 | 0.9 | 1.7 | 0.00 | 0.00 | 0.00 | 46 | 1013.3 |
| 20260510195108 | 82 | 148 | 0.0 | 0.9 | 0.00 | 0.00 | 0.00 | 46 | 1013.4 |
| 20260510194607 | 84 | 160 | 1.7 | 1.7 | 0.00 | 0.00 | 0.00 | 45 | 1013.5 |
| 20260510194104 | 83 | 146 | 0.0 | 0.0 | 0.00 | 0.00 | 0.00 | 44 | 1013.6 |
| 20260510193604 | 83 | 100 | 0.0 | 0.0 | 0.00 | 0.00 | 0.00 | 45 | 1013.7 |
| 20260510193100 | 81 | 112 | 0.0 | 0.9 | 0.00 | 0.00 | 0.00 | 47 | 1013.9 |
| 20260510192555 | 80 | 247 | 0.9 | 0.9 | 0.00 | 0.00 | 0.00 | 49 | 1014.0 |
| 20260510192051 | 78 | 188 | 0.0 | 0.0 | 0.00 | 0.00 | 0.00 | 50 | 1013.9 |
| 20260510191548 | 78 | 187 | 1.7 | 1.7 | 0.00 | 0.00 | 0.00 | 51 | 1014.0 |
| 20260510191045 | 78 | 175 | 0.9 | 0.9 | 0.00 | 0.00 | 0.00 | 51 | 1014.1 |
| 20260510190542 | 76 | 195 | 0.0 | 0.9 | 0.00 | 0.00 | 0.00 | 53 | 1013.9 |
| 20260510190040 | 76 | 163 | 1.7 | 2.6 | 0.00 | 0.00 | 0.00 | 51 | 1014.0 |
| 20260510185536 | 76 | 202 | 0.9 | 0.9 | 0.00 | 0.00 | 0.00 | 51 | 1014.0 |
| 20260510185033 | 77 | 154 | 0.0 | 0.0 | 0.00 | 0.00 | 0.00 | 51 | 1014.1 |
| 20260510184531 | 78 | 353 | 0.0 | 0.9 | 0.00 | 0.00 | 0.00 | 52 | 1014.0 |
| 20260510184026 | 78 | 161 | 0.0 | 0.0 | 0.00 | 0.00 | 0.00 | 49 | 1014.1 |
| 20260510183522 | 79 | 179 | 1.7 | 1.7 | 0.00 | 0.00 | 0.00 | 47 | 1014.1 |
| 20260510183017 | 80 | 168 | 0.0 | 0.0 | 0.00 | 0.00 | 0.00 | 47 | 1014.0 |
| 20260510182515 | 81 | 248 | 0.9 | 1.7 | 0.00 | 0.00 | 0.00 | 47 | 1014.0 |
| 20260510182014 | 80 | 134 | 0.0 | 0.0 | 0.00 | 0.00 | 0.00 | 47 | 1013.9 |
| 20260510181513 | 79 | 345 | 0.0 | 0.9 | 0.00 | 0.00 | 0.00 | 47 | 1014.0 |
| 20260510181008 | 80 | 233 | 1.7 | 1.7 | 0.00 | 0.00 | 0.00 | 47 | 1014.1 |
| 20260510180506 | 82 | 231 | 1.7 | 1.7 | 0.00 | 0.00 | 0.00 | 46 | 1014.1 |
| 20260510180003 | 81 | 113 | 0.0 | 0.0 | 0.00 | 0.00 | 0.00 | 46 | 1014.0 |
| 20260510175458 | 80 | 114 | 0.9 | 0.9 | 0.00 | 0.00 | 0.00 | 46 | 1014.2 |
| 20260510174954 | 79 | 260 | 1.7 | 1.7 | 0.00 | 0.00 | 0.00 | 46 | 1014.1 |
| 20260510174453 | 78 | 143 | 0.0 | 0.0 | 0.00 | 0.00 | 0.00 | 48 | 1014.4 |
| 20260510173949 | 82 | 228 | 2.6 | 3.5 | 0.00 | 0.00 | 0.00 | 47 | 1014.2 |
| 20260510173445 | 81 | 129 | 0.0 | 0.0 | 0.00 | 0.00 | 0.00 | 47 | 1014.3 |
| 20260510172941 | 79 | 69 | 0.9 | 0.9 | 0.00 | 0.00 | 0.00 | 50 | 1014.3 |
| 20260510172437 | 79 | 205 | 0.9 | 0.9 | 0.00 | 0.00 | 0.00 | 48 | 1014.4 |
| 20260510171934 | 83 | 300 | 1.7 | 1.7 | 0.00 | 0.00 | 0.00 | 45 | 1014.1 |
| 20260510171431 | 81 | 110 | 0.0 | 0.0 | 0.00 | 0.00 | 0.00 | 49 | 1014.1 |
| 20260510170927 | 80 | 258 | 1.7 | 2.6 | 0.00 | 0.00 | 0.00 | 47 | 1014.2 |
| 20260510170424 | 80 | 203 | 0.9 | 0.9 | 0.00 | 0.00 | 0.00 | 49 | 1014.2 |
| 20260510165920 | 79 | 104 | 0.0 | 0.0 | 0.00 | 0.00 | 0.00 | 53 | 1014.2 |
| 20260510165416 | 78 | 196 | 0.0 | 0.9 | 0.00 | 0.00 | 0.00 | 52 | 1014.4 |
| 20260510164913 | 82 | 144 | 0.0 | 0.0 | 0.00 | 0.00 | 0.00 | 46 | 1014.4 |
| 20260510164411 | 79 | 268 | 0.0 | 0.9 | 0.00 | 0.00 | 0.00 | 51 | 1014.4 |
| 20260510163910 | 78 | 194 | 0.9 | 0.9 | 0.00 | 0.00 | 0.00 | 51 | 1014.4 |
| 20260510163408 | 77 | 183 | 0.9 | 0.9 | 0.00 | 0.00 | 0.00 | 52 | 1014.2 |
| 20260510162907 | 77 | 212 | 0.0 | 0.0 | 0.00 | 0.00 | 0.00 | 50 | 1014.2 |
| 20260510162405 | 78 | 244 | 0.9 | 0.9 | 0.00 | 0.00 | 0.00 | 51 | 1014.2 |
| 20260510161901 | 79 | 210 | 0.0 | 0.9 | 0.00 | 0.00 | 0.00 | 51 | 1014.1 |
| 20260510161356 | 75 | 308 | 1.7 | 1.7 | 0.00 | 0.00 | 0.00 | 53 | 1014.1 |
| 20260510160854 | 75 | 115 | 0.0 | 0.0 | 0.00 | 0.00 | 0.00 | 54 | 1014.3 |
| 20260510160351 | 76 | 235 | 1.7 | 2.6 | 0.00 | 0.00 | 0.00 | 54 | 1014.4 |
| 20260510155849 | 76 | 130 | 0.0 | 0.0 | 0.00 | 0.00 | 0.00 | 52 | 1014.3 |
| 20260510155347 | 76 | 211 | 1.7 | 1.7 | 0.00 | 0.00 | 0.00 | 56 | 1014.3 |
| 20260510154843 | 78 | 272 | 0.9 | 1.7 | 0.00 | 0.00 | 0.00 | 54 | 1014.5 |
| 20260510154339 | 76 | 181 | 0.9 | 0.9 | 0.00 | 0.00 | 0.00 | 58 | 1014.5 |
| 20260510153833 | 76 | 151 | 0.0 | 0.0 | 0.00 | 0.00 | 0.00 | 60 | 1014.3 |
| 20260510153330 | 76 | 84 | 0.9 | 0.9 | 0.00 | 0.00 | 0.00 | 58 | 1014.3 |
| 20260510152827 | 76 | 171 | 0.9 | 0.9 | 0.00 | 0.00 | 0.00 | 57 | 1014.6 |
| 20260510152324 | 74 | 102 | 0.0 | 0.9 | 0.00 | 0.00 | 0.00 | 60 | 1014.4 |
| 20260510151820 | 74 | 242 | 1.7 | 3.5 | 0.00 | 0.00 | 0.00 | 58 | 1014.4 |
| 20260510151318 | 74 | 237 | 1.7 | 2.6 | 0.00 | 0.00 | 0.00 | 58 | 1014.4 |
| 20260510150813 | 73 | 203 | 0.9 | 0.9 | 0.00 | 0.00 | 0.00 | 60 | 1014.3 |
| 20260510150309 | 74 | 288 | 0.9 | 1.7 | 0.00 | 0.00 | 0.00 | 58 | 1014.4 |
| 20260510145805 | 73 | 146 | 0.0 | 0.0 | 0.00 | 0.00 | 0.00 | 61 | 1014.2 |
| 20260510145305 | 73 | 174 | 0.0 | 0.9 | 0.00 | 0.00 | 0.00 | 61 | 1014.2 |
| 20260510144759 | 72 | 174 | 0.9 | 0.9 | 0.00 | 0.00 | 0.00 | 63 | 1014.0 |
| 20260510144255 | 71 | 192 | 0.9 | 0.9 | 0.00 | 0.00 | 0.00 | 62 | 1014.3 |
| 20260510143755 | 71 | 157 | 0.9 | 0.9 | 0.00 | 0.00 | 0.00 | 65 | 1014.3 |
| 20260510143251 | 70 | 207 | 1.7 | 1.7 | 0.00 | 0.00 | 0.00 | 66 | 1014.5 |
| 20260510142748 | 70 | 199 | 1.7 | 1.7 | 0.00 | 0.00 | 0.00 | 67 | 1014.5 |
| 20260510142245 | 69 | 187 | 1.7 | 1.7 | 0.00 | 0.00 | 0.00 | 68 | 1014.5 |
| 20260510141742 | 72 | 240 | 1.7 | 2.6 | 0.00 | 0.00 | 0.00 | 64 | 1014.7 |
| 20260510141240 | 69 | 120 | 0.0 | 0.9 | 0.00 | 0.00 | 0.00 | 67 | 1014.6 |
| 20260510140737 | 69 | 221 | 1.7 | 1.7 | 0.00 | 0.00 | 0.00 | 67 | 1014.5 |
| 20260510140232 | 69 | 147 | 0.0 | 0.9 | 0.00 | 0.00 | 0.00 | 70 | 1014.4 |
| 20260510135732 | 69 | 157 | 0.0 | 0.0 | 0.00 | 0.00 | 0.00 | 68 | 1014.6 |
| 20260510135228 | 70 | 282 | 0.0 | 0.0 | 0.00 | 0.00 | 0.00 | 68 | 1014.5 |
| 20260510134726 | 71 | 140 | 0.0 | 0.9 | 0.00 | 0.00 | 0.00 | 67 | 1014.2 |
| 20260510134222 | 69 | 107 | 0.0 | 0.0 | 0.00 | 0.00 | 0.00 | 72 | 1014.4 |
| 20260510133718 | 67 | 130 | 0.0 | 0.0 | 0.00 | 0.00 | 0.00 | 75 | 1014.4 |
| 20260510133214 | 66 | 229 | 0.9 | 1.7 | 0.00 | 0.00 | 0.00 | 74 | 1014.5 |
| 20260510132710 | 67 | 237 | 0.0 | 0.0 | 0.00 | 0.00 | 0.00 | 73 | 1014.6 |
| 20260510132208 | 67 | 97 | 0.9 | 1.7 | 0.00 | 0.00 | 0.00 | 75 | 1014.5 |
| 20260510131705 | 64 | 80 | 0.0 | 0.9 | 0.00 | 0.00 | 0.00 | 76 | 1014.4 |
| 20260510131203 | 63 | 206 | 0.9 | 0.9 | 0.00 | 0.00 | 0.00 | 79 | 1014.6 |
| 20260510130658 | 63 | 242 | 0.9 | 0.9 | 0.00 | 0.00 | 0.00 | 80 | 1014.6 |
| 20260510130156 | 62 | 278 | 0.0 | 0.0 | 0.00 | 0.00 | 0.00 | 80 | 1014.7 |
| 20260510125652 | 61 | 239 | 0.9 | 0.9 | 0.00 | 0.00 | 0.00 | 80 | 1014.6 |
| 20260510125148 | 61 | 147 | 0.0 | 0.0 | 0.00 | 0.00 | 0.00 | 81 | 1014.5 |
| 20260510124646 | 62 | 90 | 0.0 | 0.0 | 0.00 | 0.00 | 0.00 | 79 | 1014.9 |
| 20260510124142 | 63 | 115 | 0.0 | 0.9 | 0.00 | 0.00 | 0.00 | 78 | 1014.6 |
| 20260510123638 | 62 | 114 | 0.0 | 0.0 | 0.00 | 0.00 | 0.00 | 80 | 1014.5 |
| 20260510123134 | 60 | 104 | 0.0 | 0.0 | 0.00 | 0.00 | 0.00 | 82 | 1014.6 |
| 20260510122630 | 59 | 122 | 0.0 | 0.0 | 0.00 | 0.00 | 0.00 | 86 | 1014.6 |
| 20260510122127 | 59 | 99 | 0.9 | 0.9 | 0.00 | 0.00 | 0.00 | 86 | 1014.7 |
| 20260510121623 | 60 | 96 | 0.0 | 0.0 | 0.00 | 0.00 | 0.00 | 84 | 1014.4 |
| 20260510121121 | 60 | 130 | 0.0 | 0.0 | 0.00 | 0.00 | 0.00 | 83 | 1014.1 |
| 20260510120619 | 61 | 129 | 0.0 | 0.0 | 0.00 | 0.00 | 0.00 | 81 | 1014.3 |
| 20260510120114 | 61 | 106 | 0.0 | 0.0 | 0.00 | 0.00 | 0.00 | 81 | 1014.2 |
| 20260510115611 | 60 | 113 | 0.0 | 0.0 | 0.00 | 0.00 | 0.00 | 83 | 1014.1 |
| 20260510115108 | 59 | 107 | 0.0 | 0.0 | 0.00 | 0.00 | 0.00 | 85 | 1014.1 |
| 20260510114603 | 57 | 99 | 0.0 | 0.0 | 0.00 | 0.00 | 0.00 | 88 | 1013.9 |
| 20260510114100 | 56 | 99 | 0.0 | 0.0 | 0.00 | 0.00 | 0.00 | 94 | 1014.0 |
| 20260510113555 | 54 | 159 | 0.0 | 0.0 | 0.00 | 0.00 | 0.00 | 96 | 1013.8 |
| 20260510113053 | 53 | 308 | 0.0 | 0.0 | 0.00 | 0.00 | 0.00 | 96 | 1013.9 |
| 20260510112549 | 53 | 154 | 0.0 | 0.0 | 0.00 | 0.00 | 0.00 | 96 | 1013.7 |
| 20260510112046 | 53 | 112 | 0.9 | 0.9 | 0.00 | 0.00 | 0.00 | 96 | 1013.8 |
| 20260510111542 | 53 | 348 | 0.9 | 1.7 | 0.00 | 0.00 | 0.00 | 98 | 1013.7 |
| 20260510111038 | 53 | 258 | 0.9 | 1.7 | 0.00 | 0.00 | 0.00 | 98 | 1013.6 |
| 20260510110534 | 53 | 165 | 0.0 | 0.0 | 0.00 | 0.00 | 0.00 | 98 | 1013.3 |
| 20260510110031 | 52 | 186 | 0.0 | 0.0 | 0.00 | 0.00 | 0.00 | 98 | 1013.5 |
| 20260510105526 | 52 | 251 | 0.0 | 0.9 | 0.00 | 0.00 | 0.00 | 98 | 1013.5 |
| 20260510105021 | 52 | 130 | 0.0 | 0.0 | 0.00 | 0.00 | 0.00 | 98 | 1013.4 |
| 20260510104518 | 52 | 126 | 0.0 | 0.0 | 0.00 | 0.00 | 0.00 | 98 | 1013.3 |
| 20260510104014 | 52 | 269 | 0.0 | 0.0 | 0.00 | 0.00 | 0.00 | 99 | 1013.3 |
| 20260510103512 | 52 | 242 | 0.9 | 1.7 | 0.00 | 0.00 | 0.00 | 99 | 1013.2 |
| 20260510103008 | 52 | 162 | 0.9 | 1.7 | 0.00 | 0.00 | 0.00 | 99 | 1013.1 |
| 20260510102504 | 52 | 268 | 0.0 | 0.9 | 0.00 | 0.00 | 0.00 | 99 | 1012.8 |
| 20260510102001 | 52 | 173 | 0.0 | 0.0 | 0.00 | 0.00 | 0.00 | 99 | 1012.6 |
| 20260510101458 | 52 | 262 | 0.0 | 0.9 | 0.00 | 0.00 | 0.00 | 99 | 1012.8 |
| 20260510100956 | 52 | 161 | 0.0 | 0.0 | 0.00 | 0.00 | 0.00 | 99 | 1012.8 |
| 20260510100452 | 52 | 129 | 0.0 | 0.0 | 0.00 | 0.00 | 0.00 | 99 | 1012.7 |
| 20260510095948 | 52 | 160 | 0.0 | 0.0 | 0.00 | 0.00 | 0.00 | 99 | 1012.8 |
| 20260510095444 | 52 | 170 | 0.0 | 0.0 | 0.00 | 0.00 | 0.00 | 99 | 1012.7 |
| 20260510094943 | 52 | 283 | 1.7 | 1.7 | 0.00 | 0.00 | 0.00 | 99 | 1013.0 |
| 20260510094438 | 52 | 278 | 0.9 | 0.9 | 0.00 | 0.00 | 0.00 | 99 | 1012.8 |
| 20260510093935 | 52 | 244 | 0.0 | 0.9 | 0.00 | 0.00 | 0.00 | 99 | 1012.7 |
| 20260510093430 | 52 | 244 | 0.0 | 0.0 | 0.00 | 0.00 | 0.00 | 99 | 1012.5 |
| 20260510092927 | 52 | 203 | 0.0 | 0.9 | 0.00 | 0.00 | 0.00 | 99 | 1012.5 |
| 20260510092425 | 52 | 279 | 0.0 | 0.0 | 0.00 | 0.00 | 0.00 | 99 | 1012.7 |
| 20260510091924 | 52 | 115 | 0.0 | 0.9 | 0.00 | 0.00 | 0.00 | 99 | 1012.4 |
| 20260510091421 | 52 | 215 | 0.0 | 0.9 | 0.00 | 0.00 | 0.00 | 99 | 1012.3 |
| 20260510090918 | 52 | 280 | 1.7 | 2.6 | 0.00 | 0.00 | 0.00 | 99 | 1012.4 |
| 20260510090414 | 52 | 247 | 0.9 | 0.9 | 0.00 | 0.00 | 0.00 | 99 | 1012.5 |
| 20260510085911 | 52 | 248 | 0.9 | 0.9 | 0.00 | 0.00 | 0.00 | 99 | 1012.4 |
| 20260510085406 | 52 | 354 | 0.9 | 0.9 | 0.00 | 0.00 | 0.00 | 99 | 1012.6 |
| 20260510084901 | 53 | 105 | 0.0 | 0.9 | 0.00 | 0.00 | 0.00 | 99 | 1012.4 |
| 20260510084359 | 53 | 59 | 0.0 | 0.9 | 0.00 | 0.00 | 0.00 | 99 | 1012.2 |
| 20260510083855 | 53 | 210 | 0.9 | 1.7 | 0.00 | 0.00 | 0.00 | 99 | 1012.3 |
| 20260510083352 | 54 | 293 | 0.0 | 0.0 | 0.00 | 0.00 | 0.00 | 99 | 1012.0 |
| 20260510082847 | 53 | 258 | 0.0 | 0.9 | 0.00 | 0.00 | 0.00 | 99 | 1012.0 |
| 20260510082345 | 53 | 344 | 0.0 | 0.9 | 0.00 | 0.00 | 0.00 | 99 | 1012.2 |
| 20260510081844 | 53 | 268 | 0.0 | 0.9 | 0.00 | 0.00 | 0.00 | 99 | 1011.9 |
| 20260510081340 | 53 | 239 | 0.0 | 0.0 | 0.00 | 0.00 | 0.00 | 99 | 1011.8 |
| 20260510080837 | 54 | 267 | 0.0 | 0.9 | 0.00 | 0.00 | 0.00 | 98 | 1011.9 |
| 20260510080330 | 54 | 283 | 0.0 | 0.0 | 0.00 | 0.00 | 0.00 | 98 | 1011.9 |
| 20260510075828 | 54 | 287 | 0.9 | 0.9 | 0.00 | 0.00 | 0.00 | 98 | 1011.9 |
| 20260510075326 | 53 | 260 | 0.9 | 0.9 | 0.00 | 0.00 | 0.00 | 98 | 1011.9 |
| 20260510074822 | 53 | 256 | 0.0 | 0.0 | 0.00 | 0.00 | 0.00 | 98 | 1012.0 |
| 20260510074320 | 54 | 254 | 0.0 | 0.0 | 0.00 | 0.00 | 0.00 | 98 | 1011.9 |
| 20260510073815 | 54 | 136 | 0.0 | 0.0 | 0.00 | 0.00 | 0.00 | 98 | 1011.8 |
| 20260510073311 | 54 | 254 | 0.9 | 0.9 | 0.00 | 0.00 | 0.00 | 98 | 1011.9 |
| 20260510072807 | 54 | 251 | 0.0 | 0.9 | 0.00 | 0.00 | 0.00 | 98 | 1011.9 |
| 20260510072306 | 54 | 296 | 0.0 | 0.9 | 0.00 | 0.00 | 0.00 | 97 | 1011.7 |
| 20260510071800 | 54 | 317 | 0.0 | 0.0 | 0.00 | 0.00 | 0.00 | 97 | 1011.7 |
| 20260510071257 | 54 | 317 | 0.0 | 0.0 | 0.00 | 0.00 | 0.00 | 97 | 1011.6 |
| 20260510070756 | 55 | 241 | 0.0 | 0.0 | 0.00 | 0.00 | 0.00 | 97 | 1011.4 |
| 20260510070253 | 55 | 183 | 0.0 | 0.0 | 0.00 | 0.00 | 0.00 | 97 | 1011.2 |
| 20260510065752 | 55 | 151 | 0.0 | 0.0 | 0.00 | 0.00 | 0.00 | 96 | 1011.3 |
| 20260510065249 | 55 | 257 | 0.0 | 1.7 | 0.00 | 0.00 | 0.00 | 96 | 1011.4 |
| 20260510064746 | 55 | 44 | 0.9 | 2.6 | 0.00 | 0.00 | 0.00 | 96 | 1011.3 |
| 20260510064244 | 55 | 173 | 0.9 | 1.7 | 0.00 | 0.00 | 0.00 | 95 | 1011.4 |
| 20260510063739 | 55 | 115 | 0.0 | 0.0 | 0.00 | 0.00 | 0.00 | 95 | 1011.3 |
| 20260510063236 | 55 | 140 | 0.0 | 0.9 | 0.00 | 0.00 | 0.00 | 95 | 1011.3 |
| 20260510062733 | 55 | 206 | 0.0 | 0.9 | 0.00 | 0.00 | 0.00 | 95 | 1011.7 |
| 20260510062229 | 55 | 197 | 0.0 | 0.0 | 0.00 | 0.00 | 0.00 | 94 | 1011.6 |
| 20260510061724 | 55 | 95 | 0.0 | 0.0 | 0.00 | 0.00 | 0.00 | 94 | 1011.6 |
| 20260510061222 | 55 | 325 | 0.0 | 0.9 | 0.00 | 0.00 | 0.00 | 94 | 1011.5 |
| 20260510060718 | 55 | 97 | 0.0 | 0.0 | 0.00 | 0.00 | 0.00 | 94 | 1011.5 |
| 20260510060214 | 55 | 132 | 0.0 | 0.0 | 0.00 | 0.00 | 0.00 | 94 | 1011.5 |
| 20260510055711 | 55 | 77 | 1.7 | 2.6 | 0.00 | 0.00 | 0.00 | 94 | 1011.7 |
| 20260510055209 | 55 | 122 | 0.0 | 0.0 | 0.00 | 0.00 | 0.00 | 93 | 1011.6 |
| 20260510054704 | 55 | 327 | 0.9 | 1.7 | 0.00 | 0.00 | 0.00 | 93 | 1011.6 |
| 20260510054200 | 55 | 237 | 0.0 | 0.9 | 0.00 | 0.00 | 0.00 | 93 | 1011.6 |
| 20260510053700 | 56 | 291 | 0.0 | 0.0 | 0.00 | 0.00 | 0.00 | 93 | 1011.8 |
| 20260510053157 | 56 | 71 | 0.0 | 0.0 | 0.00 | 0.00 | 0.00 | 93 | 1011.7 |
| 20260510052652 | 56 | 107 | 0.0 | 0.9 | 0.00 | 0.00 | 0.00 | 93 | 1011.7 |
| 20260510052149 | 55 | 270 | 0.0 | 0.0 | 0.00 | 0.00 | 0.00 | 93 | 1011.7 |
| 20260510051644 | 56 | 106 | 0.0 | 0.0 | 0.00 | 0.00 | 0.00 | 92 | 1012.0 |
| 20260510051141 | 56 | 242 | 0.0 | 0.0 | 0.00 | 0.00 | 0.00 | 92 | 1011.7 |
| 20260510050638 | 56 | 114 | 0.0 | 0.0 | 0.00 | 0.00 | 0.00 | 92 | 1012.0 |
| 20260510050136 | 56 | 273 | 0.0 | 0.0 | 0.00 | 0.00 | 0.00 | 92 | 1011.9 |
| 20260510045632 | 56 | 142 | 0.0 | 0.0 | 0.00 | 0.00 | 0.00 | 91 | 1012.1 |
| 20260510045129 | 56 | 235 | 0.0 | 0.0 | 0.00 | 0.00 | 0.00 | 91 | 1011.9 |
| 20260510044625 | 56 | 177 | 0.0 | 0.9 | 0.00 | 0.00 | 0.00 | 91 | 1011.8 |
| 20260510044122 | 56 | 146 | 0.0 | 0.9 | 0.00 | 0.00 | 0.00 | 90 | 1011.9 |
| 20260510043618 | 56 | 67 | 0.0 | 0.0 | 0.00 | 0.00 | 0.00 | 90 | 1012.0 |
| 20260510043115 | 56 | 190 | 0.9 | 0.9 | 0.00 | 0.00 | 0.00 | 90 | 1011.9 |
| 20260510042613 | 56 | 123 | 0.0 | 0.0 | 0.00 | 0.00 | 0.00 | 90 | 1012.1 |
| 20260510042108 | 56 | 106 | 0.0 | 0.0 | 0.00 | 0.00 | 0.00 | 90 | 1012.0 |
| 20260510041606 | 56 | 308 | 0.9 | 0.9 | 0.00 | 0.00 | 0.00 | 90 | 1012.0 |
| 20260510041103 | 56 | 77 | 0.0 | 0.9 | 0.00 | 0.00 | 0.00 | 90 | 1012.0 |
| 20260510040600 | 57 | 68 | 0.9 | 0.9 | 0.00 | 0.00 | 0.00 | 89 | 1012.0 |
| 20260510040055 | 57 | 207 | 0.9 | 0.9 | 0.00 | 0.00 | 0.00 | 89 | 1012.1 |
| 20260510035552 | 57 | 132 | 0.9 | 0.9 | 0.00 | 0.00 | 0.00 | 89 | 1012.2 |
| 20260510035051 | 57 | 39 | 0.0 | 0.9 | 0.00 | 0.00 | 0.00 | 88 | 1012.0 |
| 20260510034550 | 57 | 168 | 0.9 | 0.9 | 0.00 | 0.00 | 0.00 | 88 | 1012.0 |
| 20260510034047 | 57 | 214 | 0.0 | 0.9 | 0.00 | 0.00 | 0.00 | 88 | 1012.1 |
| 20260510033543 | 57 | 205 | 0.0 | 0.9 | 0.00 | 0.00 | 0.00 | 88 | 1011.9 |
| 20260510033041 | 57 | 277 | 0.9 | 0.9 | 0.00 | 0.00 | 0.00 | 87 | 1011.9 |
| 20260510032537 | 57 | 163 | 0.0 | 0.0 | 0.00 | 0.00 | 0.00 | 87 | 1012.0 |
| 20260510032032 | 57 | 286 | 0.0 | 0.0 | 0.00 | 0.00 | 0.00 | 87 | 1012.0 |
| 20260510031527 | 57 | 89 | 0.0 | 0.0 | 0.00 | 0.00 | 0.00 | 86 | 1011.9 |
| 20260510031024 | 57 | 161 | 0.0 | 0.0 | 0.00 | 0.00 | 0.00 | 86 | 1011.8 |
| 20260510030519 | 57 | 133 | 0.0 | 0.0 | 0.00 | 0.00 | 0.00 | 86 | 1012.0 |
| 20260510030017 | 57 | 96 | 0.9 | 0.9 | 0.00 | 0.00 | 0.00 | 86 | 1011.7 |
| 20260510025513 | 57 | 154 | 0.0 | 0.0 | 0.00 | 0.00 | 0.00 | 86 | 1011.6 |
| 20260510025011 | 57 | 82 | 0.0 | 0.9 | 0.00 | 0.00 | 0.00 | 86 | 1011.5 |
| 20260510024508 | 57 | 61 | 0.0 | 0.0 | 0.00 | 0.00 | 0.00 | 85 | 1011.7 |
| 20260510024004 | 58 | 107 | 0.0 | 0.0 | 0.00 | 0.00 | 0.00 | 85 | 1011.6 |
| 20260510023500 | 58 | 70 | 0.0 | 0.9 | 0.00 | 0.00 | 0.00 | 85 | 1011.6 |
| 20260510022957 | 57 | 210 | 0.0 | 0.9 | 0.00 | 0.00 | 0.00 | 85 | 1011.7 |
| 20260510022456 | 57 | 120 | 0.0 | 0.0 | 0.00 | 0.00 | 0.00 | 85 | 1011.7 |
| 20260510021955 | 58 | 73 | 0.9 | 0.9 | 0.00 | 0.00 | 0.00 | 85 | 1011.6 |
| 20260510021453 | 58 | 212 | 0.0 | 0.0 | 0.00 | 0.00 | 0.00 | 85 | 1011.5 |
| 20260510020950 | 58 | 154 | 0.0 | 0.0 | 0.00 | 0.00 | 0.00 | 85 | 1011.7 |
| 20260510020450 | 58 | 159 | 0.0 | 0.0 | 0.00 | 0.00 | 0.00 | 85 | 1011.7 |
| 20260510015946 | 58 | 239 | 0.9 | 1.7 | 0.00 | 0.00 | 0.00 | 85 | 1011.6 |
| 20260510015442 | 58 | 324 | 0.0 | 0.9 | 0.00 | 0.00 | 0.00 | 85 | 1011.5 |
| 20260510014937 | 58 | 101 | 0.0 | 0.0 | 0.00 | 0.00 | 0.00 | 85 | 1011.5 |
| 20260510014436 | 58 | 71 | 0.0 | 0.0 | 0.00 | 0.00 | 0.00 | 85 | 1011.5 |
| 20260510013932 | 58 | 213 | 0.9 | 0.9 | 0.00 | 0.00 | 0.00 | 85 | 1011.4 |
| 20260510013426 | 58 | 137 | 0.0 | 0.0 | 0.00 | 0.00 | 0.00 | 85 | 1011.4 |
| 20260510012922 | 58 | 60 | 0.9 | 1.7 | 0.00 | 0.00 | 0.00 | 85 | 1011.3 |
| 20260510012417 | 58 | 78 | 0.0 | 0.0 | 0.00 | 0.00 | 0.00 | 85 | 1011.2 |
| 20260510011912 | 58 | 234 | 0.0 | 0.9 | 0.00 | 0.00 | 0.00 | 85 | 1011.1 |
| 20260510011408 | 58 | 67 | 0.0 | 0.9 | 0.00 | 0.00 | 0.00 | 85 | 1011.0 |
| 20260510010904 | 58 | 163 | 0.0 | 0.0 | 0.00 | 0.00 | 0.00 | 84 | 1011.2 |
| 20260510010401 | 58 | 198 | 0.0 | 0.0 | 0.00 | 0.00 | 0.00 | 85 | 1011.1 |
| 20260510005858 | 58 | 62 | 0.0 | 0.9 | 0.00 | 0.00 | 0.00 | 85 | 1011.0 |
| 20260510005354 | 58 | 59 | 0.0 | 0.9 | 0.00 | 0.00 | 0.00 | 85 | 1010.9 |
| 20260510004852 | 58 | 110 | 0.0 | 0.9 | 0.00 | 0.00 | 0.00 | 85 | 1011.1 |
| 20260510004349 | 58 | 114 | 0.9 | 1.7 | 0.00 | 0.00 | 0.00 | 85 | 1011.0 |
| 20260510003847 | 58 | 100 | 0.0 | 0.0 | 0.00 | 0.00 | 0.00 | 84 | 1011.1 |
| 20260510003344 | 58 | 69 | 0.0 | 0.9 | 0.00 | 0.00 | 0.00 | 84 | 1010.9 |
| 20260510002842 | 58 | 151 | 0.0 | 0.0 | 0.00 | 0.00 | 0.00 | 84 | 1010.9 |
| 20260510002340 | 58 | 250 | 0.0 | 0.9 | 0.00 | 0.00 | 0.00 | 84 | 1010.9 |
| 20260510001836 | 58 | 182 | 0.0 | 0.0 | 0.00 | 0.00 | 0.00 | 83 | 1010.7 |
| 20260510001335 | 58 | 171 | 0.0 | 0.0 | 0.00 | 0.00 | 0.00 | 83 | 1011.1 |
| 20260510000830 | 59 | 147 | 0.0 | 0.0 | 0.00 | 0.00 | 0.00 | 83 | 1010.7 |
| 20260510000328 | 59 | 62 | 0.9 | 0.9 | 0.00 | 0.00 | 0.00 | 83 | 1011.0 |
| 20260509235824 | 59 | 36 | 0.0 | 1.7 | 0.00 | 0.00 | 0.00 | 83 | 1010.9 |
| 20260509235321 | 59 | 218 | 0.0 | 0.0 | 0.00 | 0.00 | 0.00 | 83 | 1010.7 |
| 20260509234817 | 59 | 356 | 0.0 | 0.9 | 0.00 | 0.00 | 0.00 | 82 | 1010.9 |
| 20260509234314 | 59 | 117 | 0.0 | 0.0 | 0.00 | 0.00 | 0.00 | 82 | 1011.0 |
| 20260509233812 | 60 | 165 | 0.9 | 0.9 | 0.00 | 0.00 | 0.00 | 81 | 1010.7 |
| 20260509233309 | 60 | 46 | 0.9 | 1.7 | 0.00 | 0.00 | 0.00 | 81 | 1010.7 |
| 20260509232805 | 60 | 162 | 0.0 | 0.0 | 0.00 | 0.00 | 0.00 | 81 | 1010.9 |
| 20260509232306 | 60 | 140 | 0.0 | 0.0 | 0.00 | 0.00 | 0.00 | 81 | 1010.6 |
| 20260509231759 | 60 | 265 | 0.0 | 0.0 | 0.00 | 0.00 | 0.00 | 80 | 1010.5 |
| 20260509231256 | 60 | 133 | 0.0 | 0.0 | 0.00 | 0.00 | 0.00 | 80 | 1010.6 |
| 20260509230754 | 61 | 229 | 0.9 | 0.9 | 0.00 | 0.00 | 0.00 | 79 | 1010.5 |
| 20260509230250 | 61 | 285 | 0.0 | 0.0 | 0.00 | 0.00 | 0.00 | 79 | 1010.7 |
| 20260509225745 | 61 | 262 | 0.9 | 1.7 | 0.00 | 0.00 | 0.00 | 78 | 1010.6 |
| 20260509225242 | 61 | 100 | 0.0 | 0.0 | 0.00 | 0.00 | 0.00 | 77 | 1010.5 |
| 20260509224737 | 62 | 203 | 0.0 | 0.9 | 0.00 | 0.00 | 0.00 | 76 | 1010.5 |
| 20260509224235 | 62 | 253 | 0.0 | 0.0 | 0.00 | 0.00 | 0.00 | 76 | 1010.3 |
| 20260509223732 | 62 | 329 | 0.9 | 1.7 | 0.00 | 0.00 | 0.00 | 76 | 1010.5 |
| 20260509223229 | 62 | 174 | 0.0 | 0.0 | 0.00 | 0.00 | 0.00 | 76 | 1010.5 |
| 20260509222725 | 62 | 285 | 0.0 | 0.0 | 0.00 | 0.00 | 0.00 | 76 | 1010.6 |
| 20260509222221 | 62 | 57 | 0.0 | 0.0 | 0.00 | 0.00 | 0.00 | 75 | 1010.6 |
| 20260509221716 | 62 | 113 | 0.9 | 1.7 | 0.00 | 0.00 | 0.00 | 75 | 1010.6 |
| 20260509221213 | 62 | 282 | 2.6 | 2.6 | 0.00 | 0.00 | 0.00 | 75 | 1010.6 |
| 20260509220709 | 61 | 283 | 0.9 | 0.9 | 0.00 | 0.00 | 0.00 | 75 | 1010.7 |
| 20260509220206 | 61 | 99 | 0.0 | 0.0 | 0.00 | 0.00 | 0.00 | 76 | 1010.7 |
| 20260509215701 | 61 | 60 | 1.7 | 2.6 | 0.00 | 0.00 | 0.00 | 75 | 1010.6 |
| 20260509215158 | 62 | 105 | 2.6 | 3.5 | 0.00 | 0.00 | 0.00 | 74 | 1010.6 |
| 20260509214655 | 62 | 128 | 0.0 | 0.0 | 0.00 | 0.00 | 0.00 | 75 | 1010.6 |
| 20260509214152 | 62 | 136 | 1.7 | 1.7 | 0.00 | 0.00 | 0.00 | 75 | 1010.4 |
| 20260509213649 | 61 | 149 | 0.0 | 0.0 | 0.00 | 0.00 | 0.00 | 75 | 1010.7 |
| 20260509213144 | 62 | 83 | 0.0 | 0.0 | 0.00 | 0.00 | 0.00 | 75 | 1010.5 |
| 20260509212642 | 62 | 251 | 0.0 | 0.9 | 0.00 | 0.00 | 0.00 | 76 | 1010.6 |
| 20260509212139 | 62 | 94 | 0.0 | 0.9 | 0.00 | 0.00 | 0.00 | 75 | 1010.5 |
| 20260509211635 | 62 | 157 | 0.0 | 0.0 | 0.00 | 0.00 | 0.00 | 75 | 1010.5 |
| 20260509211132 | 62 | 93 | 0.9 | 0.9 | 0.00 | 0.00 | 0.00 | 74 | 1010.5 |
| 20260509210629 | 62 | 264 | 0.0 | 0.0 | 0.00 | 0.00 | 0.00 | 75 | 1010.2 |
| 20260509210126 | 62 | 278 | 0.0 | 0.0 | 0.00 | 0.00 | 0.00 | 74 | 1010.5 |
| 20260509205620 | 63 | 278 | 0.0 | 0.9 | 0.00 | 0.00 | 0.00 | 73 | 1010.6 |
| 20260509205115 | 63 | 187 | 0.0 | 0.0 | 0.00 | 0.00 | 0.00 | 73 | 1010.5 |
| 20260509204611 | 63 | 215 | 0.9 | 1.7 | 0.00 | 0.00 | 0.00 | 71 | 1010.3 |
| 20260509204108 | 63 | 324 | 0.0 | 0.0 | 0.00 | 0.00 | 0.00 | 72 | 1010.7 |
| 20260509203604 | 63 | 243 | 0.9 | 0.9 | 0.00 | 0.00 | 0.00 | 72 | 1010.5 |
| 20260509203103 | 63 | 164 | 0.0 | 0.0 | 0.00 | 0.00 | 0.00 | 71 | 1010.6 |
| 20260509202602 | 63 | 273 | 2.6 | 2.6 | 0.00 | 0.00 | 0.00 | 71 | 1010.6 |